Time;durP1;ratioP1;P1;durP2;ratioP2;P2;SDS_P1;SDS_P2;PMS_P1;PMS_P2;Temp;Humidity;BMP_temperature;BMP_pressure;BME280_temperature;BME280_humidity;BME280_pressure;Samples;Min_cycle;Max_cycle;Signal;HPM_P1;HPM_P2
2021/12/15 00:01:19;;;;;;;33.10;18.58;;;6.90;93.70;;;;;;5057600;28;20210;-79
2021/12/15 00:03:46;;;;;;;28.60;17.70;;;7.00;93.80;;;;;;5056327;28;20214;-80
2021/12/15 00:06:18;;;;;;;28.77;17.88;;;7.00;93.60;;;;;;5058377;28;20208;-80
2021/12/15 00:08:48;;;;;;;30.38;18.77;;;7.00;93.40;;;;;;5057971;28;20231;-80
2021/12/15 00:11:16;;;;;;;35.70;18.85;;;6.80;93.30;;;;;;5058825;28;20216;-80
2021/12/15 00:13:45;;;;;;;32.15;19.83;;;6.60;94.30;;;;;;5059552;28;20301;-79
2021/12/15 00:16:16;;;;;;;32.17;19.88;;;6.50;95.70;;;;;;5057145;28;20211;-79
2021/12/15 00:18:44;;;;;;;37.20;21.70;;;6.40;96.50;;;;;;5070052;28;20662;-81
2021/12/15 00:21:14;;;;;;;35.45;20.55;;;6.40;97.40;;;;;;5057720;28;20293;-80
2021/12/15 00:23:43;;;;;;;36.47;21.80;;;6.30;97.90;;;;;;5061461;28;20321;-80
2021/12/15 00:26:10;;;;;;;36.83;21.55;;;6.20;98.80;;;;;;5059770;28;20369;-80
2021/12/15 00:28:37;;;;;;;37.28;20.98;;;6.20;99.70;;;;;;5058141;28;20658;-80
2021/12/15 00:31:05;;;;;;;36.05;21.02;;;6.20;99.90;;;;;;5061878;28;20206;-81
2021/12/15 00:33:34;;;;;;;37.08;21.63;;;6.20;99.90;;;;;;5062908;28;20261;-80
2021/12/15 00:36:01;;;;;;;37.67;22.17;;;6.20;99.90;;;;;;5059977;28;20294;-79
2021/12/15 00:38:28;;;;;;;37.00;21.77;;;6.20;99.90;;;;;;5061766;28;20288;-82
2021/12/15 00:40:55;;;;;;;34.08;19.45;;;6.20;99.90;;;;;;5049601;28;20213;-80
2021/12/15 00:43:22;;;;;;;41.10;22.45;;;6.30;99.90;;;;;;5043143;28;20235;-80
2021/12/15 00:45:49;;;;;;;36.30;21.05;;;6.40;99.90;;;;;;5042921;28;20217;-80
2021/12/15 00:48:17;;;;;;;33.25;19.42;;;6.40;99.90;;;;;;5046680;28;20241;-82
2021/12/15 00:50:46;;;;;;;31.98;19.25;;;6.40;99.90;;;;;;5045638;28;20203;-79
2021/12/15 00:53:14;;;;;;;30.98;20.13;;;6.40;99.90;;;;;;5042221;28;20690;-80
2021/12/15 00:55:43;;;;;;;31.65;20.05;;;6.50;99.90;;;;;;5042551;28;20226;-80
2021/12/15 00:58:11;;;;;;;38.55;21.17;;;6.60;99.90;;;;;;5042485;28;20287;-79
2021/12/15 01:00:42;;;;;;;34.83;19.08;;;6.60;99.90;;;;;;5041869;28;20207;-80
2021/12/15 01:03:09;;;;;;;32.40;19.58;;;6.60;99.90;;;;;;5043913;28;20237;-81
2021/12/15 01:05:41;;;;;;;40.70;20.60;;;6.70;99.90;;;;;;5056478;28;20210;-79
2021/12/15 01:08:16;;;;;;;32.15;18.42;;;6.70;99.90;;;;;;5056586;28;20207;-80
2021/12/15 01:10:58;;;;;;;36.10;19.77;;;6.70;99.30;;;;;;5045158;28;20643;-81
2021/12/15 01:21:45;;;;;;;32.72;19.17;;;6.80;97.60;;;;;;5050281;28;20249;-81
2021/12/15 01:24:14;;;;;;;34.42;19.88;;;6.80;97.00;;;;;;5049687;28;20214;-81
2021/12/15 01:26:42;;;;;;;31.83;18.35;;;6.90;96.30;;;;;;5055538;28;20214;-78
2021/12/15 01:29:10;;;;;;;33.72;18.88;;;6.80;95.90;;;;;;5051486;28;20702;-81
2021/12/15 01:31:37;;;;;;;31.85;19.05;;;6.80;95.80;;;;;;5049318;28;20226;-80
2021/12/15 01:34:04;;;;;;;32.50;17.48;;;6.80;95.90;;;;;;5043743;28;20227;-81
2021/12/15 01:36:32;;;;;;;32.75;21.20;;;6.80;95.40;;;;;;5049027;28;20214;-79
2021/12/15 01:38:59;;;;;;;38.38;20.20;;;6.80;95.80;;;;;;5048860;28;20219;-81
2021/12/15 01:41:27;;;;;;;36.15;20.63;;;6.80;95.30;;;;;;5051281;28;20259;-80
2021/12/15 01:46:55;;;;;;;30.08;19.02;;;6.80;94.90;;;;;;5053969;28;20221;-79
2021/12/15 01:49:27;;;;;;;32.67;19.33;;;6.80;94.70;;;;;;5052359;28;20239;-81
2021/12/15 01:51:55;;;;;;;32.53;20.50;;;6.80;94.70;;;;;;5051406;28;20315;-78
2021/12/15 01:54:23;;;;;;;29.90;19.27;;;6.80;94.20;;;;;;5054289;28;20275;-79
2021/12/15 01:56:52;;;;;;;31.77;19.45;;;6.80;94.70;;;;;;5042206;28;20207;-80
2021/12/15 01:59:22;;;;;;;40.35;22.23;;;6.90;94.70;;;;;;5051522;28;20218;-81
2021/12/15 02:01:49;;;;;;;32.25;19.02;;;6.90;94.20;;;;;;5044648;28;20231;-81
2021/12/15 02:04:18;;;;;;;35.95;20.60;;;6.90;94.40;;;;;;5052442;28;20199;-80
2021/12/15 02:06:46;;;;;;;31.52;19.70;;;7.00;94.20;;;;;;5051854;28;20733;-81
2021/12/15 02:09:25;;;;;;;31.33;19.52;;;6.90;93.30;;;;;;5053450;28;20245;-80
2021/12/15 02:11:54;;;;;;;30.40;19.15;;;6.80;93.60;;;;;;5053454;28;20254;-80
2021/12/15 02:14:21;;;;;;;38.17;20.60;;;6.90;94.20;;;;;;5042467;28;20207;-81
2021/12/15 02:16:48;;;;;;;32.15;20.10;;;6.80;93.90;;;;;;5041410;28;20405;-81
2021/12/15 02:19:15;;;;;;;52.63;22.13;;;6.70;94.10;;;;;;5040682;28;20199;-80
2021/12/15 02:21:44;;;;;;;33.72;19.73;;;6.80;94.80;;;;;;5040251;28;20258;-80
2021/12/15 02:24:11;;;;;;;33.90;20.23;;;6.60;94.90;;;;;;5045264;28;20234;-81
2021/12/15 02:26:44;;;;;;;33.30;20.95;;;6.50;95.80;;;;;;5049683;28;20211;-81
2021/12/15 02:29:17;;;;;;;34.13;20.48;;;6.50;97.00;;;;;;5046228;28;20478;-81
2021/12/15 02:31:56;;;;;;;37.47;21.00;;;6.50;97.50;;;;;;5039876;28;20804;-81
2021/12/15 02:34:44;;;;;;;34.35;20.35;;;6.50;97.50;;;;;;5052267;28;20233;-81
2021/12/15 02:37:17;;;;;;;30.42;20.27;;;6.60;97.90;;;;;;5042668;28;20691;-82
2021/12/15 02:39:47;;;;;;;37.92;22.38;;;6.50;97.60;;;;;;5040022;28;20196;-83
2021/12/15 02:42:14;;;;;;;36.55;22.27;;;6.40;98.50;;;;;;5039634;28;20246;-81
2021/12/15 02:44:43;;;;;;;33.65;20.65;;;6.40;99.10;;;;;;5044088;28;20282;-79
2021/12/15 02:47:12;;;;;;;35.70;20.90;;;6.40;99.30;;;;;;5052156;28;20211;-80
2021/12/15 02:49:40;;;;;;;36.00;22.30;;;6.40;99.30;;;;;;5051350;28;20254;-81
2021/12/15 02:52:08;;;;;;;32.65;20.05;;;6.30;99.80;;;;;;5048029;28;20230;-80
2021/12/15 02:54:38;;;;;;;37.83;21.92;;;6.40;99.90;;;;;;5050357;28;20199;-80
2021/12/15 02:57:10;;;;;;;34.90;21.13;;;6.50;99.90;;;;;;5052558;28;20541;-80
2021/12/15 02:59:51;;;;;;;38.72;21.88;;;6.50;99.90;;;;;;5050140;28;20218;-81
2021/12/15 03:03:09;;;;;;;35.72;21.70;;;6.40;99.90;;;;;;5052010;28;20242;-80
2021/12/15 03:05:42;;;;;;;29.58;20.10;;;6.40;99.90;;;;;;5052943;28;20207;-81
2021/12/15 03:08:14;;;;;;;38.75;22.90;;;6.40;99.90;;;;;;5052211;28;20275;-81
2021/12/15 03:16:15;;;;;;;42.83;24.13;;;6.30;99.90;;;;;;5056463;28;20229;-79
2021/12/15 03:18:44;;;;;;;42.38;25.05;;;6.30;99.90;;;;;;5058595;28;20227;-80
2021/12/15 03:21:14;;;;;;;45.10;25.85;;;6.30;99.90;;;;;;5058367;28;20180;-80
2021/12/15 03:23:48;;;;;;;43.08;24.50;;;6.30;99.90;;;;;;5056762;28;20219;-81
2021/12/15 03:26:21;;;;;;;46.65;25.30;;;6.30;99.90;;;;;;5044980;28;20585;-80
2021/12/15 03:37:23;;;;;;;42.50;25.65;;;6.40;99.90;;;;;;5041122;28;20196;-80
2021/12/15 03:39:53;;;;;;;41.97;24.95;;;6.40;99.90;;;;;;5047410;28;20217;-80
2021/12/15 03:42:27;;;;;;;41.60;24.40;;;6.30;99.90;;;;;;5051666;28;20219;-79
2021/12/15 03:44:56;;;;;;;44.65;24.58;;;6.40;99.90;;;;;;5049318;28;20212;-81
2021/12/15 03:47:26;;;;;;;43.88;24.17;;;6.40;99.90;;;;;;5053440;28;20279;-80
2021/12/15 03:49:54;;;;;;;39.70;22.15;;;6.40;99.90;;;;;;5054840;28;20249;-79
2021/12/15 03:52:22;;;;;;;36.78;22.92;;;6.50;99.90;;;;;;5053924;28;20227;-80
2021/12/15 03:54:49;;;;;;;42.33;24.00;;;6.50;99.90;;;;;;5054137;28;20242;-80
2021/12/15 03:57:17;;;;;;;43.00;24.17;;;6.60;99.90;;;;;;5054361;28;20628;-80
2021/12/15 03:59:45;;;;;;;45.58;26.52;;;6.60;99.90;;;;;;5043970;28;20250;-80
2021/12/15 04:02:15;;;;;;;41.53;24.02;;;6.70;99.90;;;;;;5041190;28;20251;-80
2021/12/15 04:04:43;;;;;;;34.33;21.40;;;6.80;99.90;;;;;;5042851;28;20295;-81
2021/12/15 04:07:11;;;;;;;38.30;23.13;;;6.80;99.90;;;;;;5040905;28;20218;-81
2021/12/15 04:09:39;;;;;;;34.55;21.70;;;6.80;99.90;;;;;;5039291;28;20251;-81
2021/12/15 04:12:08;;;;;;;32.85;20.70;;;6.90;99.90;;;;;;5038906;28;20650;-80
2021/12/15 04:14:43;;;;;;;30.70;20.20;;;6.80;98.70;;;;;;5040726;28;20217;-81
2021/12/15 04:17:26;;;;;;;35.42;21.00;;;6.80;98.90;;;;;;5046796;28;20213;-80
2021/12/15 04:19:56;;;;;;;32.30;20.00;;;6.80;98.80;;;;;;5052421;28;20215;-80
2021/12/15 04:22:25;;;;;;;33.83;21.67;;;6.80;98.40;;;;;;5041707;28;20222;-80
2021/12/15 04:24:54;;;;;;;32.13;21.23;;;6.80;97.60;;;;;;5050405;28;20221;-81
2021/12/15 04:27:21;;;;;;;37.25;21.48;;;6.80;97.70;;;;;;5053582;28;20288;-81
2021/12/15 04:29:49;;;;;;;35.80;20.45;;;6.80;97.60;;;;;;5053576;28;20232;-81
2021/12/15 04:32:24;;;;;;;33.75;20.02;;;6.80;97.00;;;;;;5056266;28;20219;-81
2021/12/15 04:34:51;;;;;;;37.53;22.40;;;6.80;97.10;;;;;;5038663;28;20209;-80
2021/12/15 04:37:18;;;;;;;31.02;19.60;;;6.80;96.80;;;;;;5045369;28;20211;-79
2021/12/15 04:39:45;;;;;;;32.80;19.80;;;6.80;96.80;;;;;;5039129;28;20195;-80
2021/12/15 04:42:12;;;;;;;32.55;19.48;;;6.80;97.40;;;;;;5038489;28;20227;-79
2021/12/15 04:44:40;;;;;;;33.60;19.73;;;6.80;96.90;;;;;;5039522;28;20230;-80
2021/12/15 04:47:10;;;;;;;34.25;20.85;;;6.80;96.80;;;;;;5047205;28;20207;-79
2021/12/15 04:49:42;;;;;;;35.20;19.45;;;6.80;97.00;;;;;;5047943;28;20227;-81
2021/12/15 04:52:11;;;;;;;32.83;18.27;;;6.90;96.40;;;;;;5043404;28;20295;-79
2021/12/15 04:54:38;;;;;;;34.75;19.67;;;6.80;95.90;;;;;;5048479;28;20222;-79
2021/12/15 04:57:06;;;;;;;33.40;19.75;;;6.70;95.80;;;;;;5053362;28;20203;-80
2021/12/15 04:59:34;;;;;;;37.45;21.85;;;6.70;95.80;;;;;;5053648;28;20210;-81
2021/12/15 05:02:02;;;;;;;31.83;19.85;;;6.70;96.20;;;;;;5054579;28;20211;-83
2021/12/15 05:04:30;;;;;;;31.80;19.65;;;6.70;95.90;;;;;;5055619;28;20195;-82
2021/12/15 05:06:58;;;;;;;29.50;18.58;;;6.80;96.00;;;;;;5044211;28;20298;-82
2021/12/15 05:09:25;;;;;;;32.50;19.88;;;6.80;95.90;;;;;;5056480;28;20198;-83
2021/12/15 05:11:54;;;;;;;35.90;20.80;;;6.80;95.90;;;;;;5055902;28;20246;-84
2021/12/15 05:14:22;;;;;;;41.70;20.45;;;6.80;95.90;;;;;;5056628;28;20233;-83
2021/12/15 05:16:51;;;;;;;37.38;21.02;;;6.80;96.00;;;;;;5036244;28;20211;-82
2021/12/15 05:19:18;;;;;;;36.78;20.35;;;6.80;95.90;;;;;;5026891;28;20645;-82
2021/12/15 05:21:45;;;;;;;31.17;18.48;;;6.80;95.90;;;;;;5035681;28;20230;-82
2021/12/15 05:24:25;;;;;;;34.80;20.85;;;6.80;95.80;;;;;;5037033;28;20195;-79
2021/12/15 05:26:52;;;;;;;40.05;20.08;;;6.90;95.90;;;;;;5018083;28;20211;-80
2021/12/15 05:29:19;;;;;;;34.55;19.20;;;6.80;95.70;;;;;;5033148;28;20328;-80
2021/12/15 05:34:11;;;;;;;33.43;18.80;;;6.80;95.60;;;;;;5061577;22;20238;-79
2021/12/15 05:36:38;;;;;;;40.67;20.02;;;6.80;95.80;;;;;;5045706;28;20230;-80
2021/12/15 05:39:07;;;;;;;36.88;20.23;;;6.80;95.80;;;;;;5035831;28;20219;-83
2021/12/15 05:41:49;;;;;;;40.85;21.48;;;6.90;95.80;;;;;;5039696;28;20203;-83
2021/12/15 05:44:30;;;;;;;36.60;19.73;;;6.80;95.90;;;;;;5018679;28;20222;-82
2021/12/15 05:47:29;;;;;;;34.65;19.73;;;6.80;95.60;;;;;;5021055;28;20235;-84
2021/12/15 05:50:05;;;;;;;36.80;19.60;;;6.90;95.90;;;;;;5016352;28;20607;-84
2021/12/15 05:55:57;;;;;;;34.75;19.38;;;6.80;95.90;;;;;;4983213;28;20252;-79
2021/12/15 05:58:38;;;;;;;38.47;21.13;;;6.80;96.00;;;;;;5015874;28;20204;-80
2021/12/15 06:01:10;;;;;;;31.38;19.63;;;6.80;95.90;;;;;;5014488;28;20200;-81
2021/12/15 06:06:49;;;;;;;38.38;22.25;;;6.70;96.50;;;;;;5012816;28;20212;-80
2021/12/15 06:09:26;;;;;;;38.47;20.65;;;6.60;97.10;;;;;;5013907;28;20208;-80
2021/12/15 06:15:23;;;;;;;34.55;20.15;;;6.70;97.60;;;;;;5010937;28;20220;-80
2021/12/15 06:18:14;;;;;;;37.80;19.83;;;6.70;97.60;;;;;;5004320;28;20217;-80
2021/12/15 06:20:45;;;;;;;41.05;18.70;;;6.80;97.60;;;;;;5003739;28;20752;-82
2021/12/15 06:26:27;;;;;;;40.83;19.85;;;6.70;97.40;;;;;;5002770;28;20200;-79
2021/12/15 06:29:10;;;;;;;36.72;18.13;;;6.70;97.00;;;;;;5012535;28;20219;-79
2021/12/15 06:31:52;;;;;;;42.33;20.65;;;6.70;97.50;;;;;;5012646;28;20263;-81
2021/12/15 06:34:24;;;;;;;42.28;20.42;;;6.60;97.50;;;;;;5016161;28;20201;-78
2021/12/15 06:37:06;;;;;;;37.08;20.45;;;6.70;97.60;;;;;;5019661;28;20244;-78
2021/12/15 06:39:39;;;;;;;37.95;20.00;;;6.70;97.60;;;;;;5014340;28;20212;-80
2021/12/15 06:42:16;;;;;;;43.00;20.30;;;6.70;97.60;;;;;;5011471;28;20217;-80
2021/12/15 07:00:10;;;;;;;48.10;21.50;;;6.50;98.60;;;;;;5065362;28;20209;-78
2021/12/15 07:02:46;;;;;;;46.60;20.75;;;6.50;99.20;;;;;;5074507;28;20297;-79
2021/12/15 07:08:12;;;;;;;50.33;22.38;;;6.60;99.10;;;;;;5086016;22;20242;-81
2021/12/15 07:10:43;;;;;;;55.38;21.67;;;6.50;99.00;;;;;;5063636;28;20249;-82
2021/12/15 07:13:11;;;;;;;53.20;22.52;;;6.40;99.80;;;;;;5068796;28;20216;-82
2021/12/15 07:15:39;;;;;;;45.28;22.48;;;6.50;99.90;;;;;;5073556;28;20206;-80
2021/12/15 07:18:11;;;;;;;49.33;21.65;;;6.60;99.90;;;;;;5072903;28;20254;-80
2021/12/15 07:20:44;;;;;;;47.10;21.58;;;6.70;99.90;;;;;;5064909;28;20203;-81
2021/12/15 07:23:17;;;;;;;53.80;22.27;;;6.70;99.70;;;;;;5061652;28;20209;-79
2021/12/15 07:25:46;;;;;;;43.13;21.10;;;6.70;99.30;;;;;;5061397;28;20217;-81
2021/12/15 07:28:14;;;;;;;43.83;21.60;;;6.70;99.30;;;;;;5062319;28;20276;-80
2021/12/15 07:30:42;;;;;;;43.58;21.75;;;6.70;99.40;;;;;;5062670;28;20226;-80
2021/12/15 07:33:12;;;;;;;42.63;20.83;;;6.80;99.00;;;;;;5061404;28;20285;-80
2021/12/15 07:35:44;;;;;;;43.25;21.13;;;6.80;98.50;;;;;;5061688;28;20206;-80
2021/12/15 07:38:11;;;;;;;38.83;19.85;;;6.80;98.90;;;;;;5063649;28;20641;-81
2021/12/15 07:40:40;;;;;;;36.60;19.33;;;6.90;98.20;;;;;;5064846;28;20221;-82
2021/12/15 07:43:11;;;;;;;43.67;20.42;;;6.90;98.00;;;;;;5065091;28;20214;-82
2021/12/15 07:45:42;;;;;;;41.78;21.13;;;6.90;97.70;;;;;;5069282;28;20210;-80
2021/12/15 07:48:13;;;;;;;39.75;19.95;;;6.90;97.00;;;;;;5074122;28;20286;-81
2021/12/15 07:50:42;;;;;;;36.30;20.00;;;6.90;97.60;;;;;;5077192;28;20269;-79
2021/12/15 07:53:10;;;;;;;38.03;21.30;;;6.90;97.50;;;;;;5077221;28;20225;-79
2021/12/15 07:55:41;;;;;;;36.47;19.95;;;6.80;96.80;;;;;;5077451;28;20195;-79
2021/12/15 07:58:11;;;;;;;41.25;21.02;;;6.80;97.20;;;;;;5072001;28;20245;-79
2021/12/15 08:00:42;;;;;;;41.42;22.00;;;6.90;97.30;;;;;;5066003;28;20247;-80
2021/12/15 08:03:11;;;;;;;36.55;20.15;;;6.90;97.30;;;;;;5063809;28;20641;-78
2021/12/15 08:05:40;;;;;;;36.75;21.77;;;6.80;97.10;;;;;;5067365;28;20210;-80
2021/12/15 08:08:08;;;;;;;37.88;21.98;;;6.80;96.70;;;;;;5060808;28;20240;-79
2021/12/15 08:10:36;;;;;;;44.30;22.13;;;6.80;96.80;;;;;;5061793;28;20224;-78
2021/12/15 08:13:03;;;;;;;45.17;21.60;;;6.70;97.10;;;;;;5061501;28;20280;-81
2021/12/15 08:15:30;;;;;;;38.45;22.00;;;6.60;97.00;;;;;;5061155;28;20257;-80
2021/12/15 08:17:57;;;;;;;37.47;21.75;;;6.70;97.70;;;;;;5062101;28;20227;-80
2021/12/15 08:20:28;;;;;;;36.10;20.65;;;6.70;97.80;;;;;;5068993;28;20209;-81
2021/12/15 08:22:55;;;;;;;35.50;20.50;;;6.80;97.60;;;;;;5065710;28;20298;-81
2021/12/15 08:25:23;;;;;;;41.45;22.90;;;6.80;97.60;;;;;;5065762;28;20236;-81
2021/12/15 08:27:53;;;;;;;38.60;21.92;;;6.80;97.60;;;;;;5064555;28;20230;-81
2021/12/15 08:30:26;;;;;;;40.22;20.60;;;6.80;97.60;;;;;;5071056;28;20228;-80
2021/12/15 08:32:56;;;;;;;40.15;20.27;;;6.80;97.30;;;;;;5075791;28;20222;-80
2021/12/15 08:35:28;;;;;;;36.65;21.80;;;6.80;97.10;;;;;;5075911;28;20198;-80
2021/12/15 08:37:55;;;;;;;36.38;21.27;;;6.80;97.10;;;;;;5075685;28;20240;-79
2021/12/15 08:40:25;;;;;;;41.22;22.77;;;6.90;97.50;;;;;;5074067;28;20248;-80
2021/12/15 08:42:53;;;;;;;52.20;25.92;;;6.90;97.20;;;;;;5073212;28;20294;-81
2021/12/15 08:45:21;;;;;;;34.95;21.45;;;6.90;97.00;;;;;;5071668;28;20229;-81
2021/12/15 08:47:50;;;;;;;42.03;20.67;;;6.90;96.60;;;;;;5075280;28;20226;-81
2021/12/15 08:50:26;;;;;;;36.03;20.40;;;6.90;97.20;;;;;;5068530;28;20275;-80
2021/12/15 08:52:54;;;;;;;36.70;20.50;;;7.00;97.40;;;;;;5064289;28;20202;-80
2021/12/15 08:55:22;;;;;;;38.95;20.58;;;6.90;96.20;;;;;;5066567;28;20282;-81
2021/12/15 08:57:53;;;;;;;38.92;20.95;;;6.80;97.50;;;;;;5070402;28;20230;-80
2021/12/15 09:00:22;;;;;;;43.65;22.45;;;7.00;97.70;;;;;;5067901;28;20269;-80
2021/12/15 09:02:50;;;;;;;36.92;19.92;;;7.00;97.30;;;;;;5064372;28;20211;-80
2021/12/15 09:05:20;;;;;;;40.42;19.98;;;7.00;96.80;;;;;;5066257;28;20284;-81
2021/12/15 09:07:49;;;;;;;35.42;20.88;;;7.10;96.70;;;;;;5070850;28;20257;-81
2021/12/15 09:10:20;;;;;;;37.17;21.70;;;7.20;96.80;;;;;;5072797;28;20214;-80
2021/12/15 09:12:47;;;;;;;42.22;21.02;;;7.10;95.80;;;;;;5066555;28;20262;-82
2021/12/15 09:15:16;;;;;;;38.75;20.90;;;6.80;96.20;;;;;;5075457;28;20198;-80
2021/12/15 09:17:43;;;;;;;33.67;19.92;;;6.80;97.30;;;;;;5068022;28;20223;-80
2021/12/15 09:20:13;;;;;;;37.70;21.90;;;6.90;97.70;;;;;;5075386;28;20218;-80
2021/12/15 09:22:40;;;;;;;39.85;20.40;;;6.80;97.60;;;;;;5068562;28;20203;-80
2021/12/15 09:25:10;;;;;;;42.78;21.42;;;6.90;98.30;;;;;;5059785;28;20579;-80
2021/12/15 09:27:39;;;;;;;34.63;20.55;;;6.90;98.50;;;;;;5060355;28;20233;-80
2021/12/15 09:30:08;;;;;;;36.25;21.90;;;7.00;97.80;;;;;;5059704;28;20254;-80
2021/12/15 09:32:35;;;;;;;40.92;22.58;;;7.00;97.70;;;;;;5059940;28;20250;-79
2021/12/15 09:35:03;;;;;;;44.65;21.00;;;7.00;97.80;;;;;;5060509;28;20285;-81
2021/12/15 09:37:30;;;;;;;35.40;20.33;;;7.20;97.80;;;;;;5067500;28;20230;-80
2021/12/15 09:39:58;;;;;;;44.25;20.70;;;7.30;97.40;;;;;;5070977;28;20234;-80
2021/12/15 09:42:31;;;;;;;40.95;21.20;;;7.50;96.50;;;;;;5070112;28;20202;-80
2021/12/15 09:45:16;;;;;;;38.33;21.55;;;7.50;95.90;;;;;;5060938;28;20221;-80
2021/12/15 09:47:59;;;;;;;36.50;19.67;;;7.40;94.30;;;;;;5060582;28;20228;-80
2021/12/15 09:57:01;;;;;;;35.53;20.20;;;7.30;94.40;;;;;;5055181;28;20267;-79
2021/12/15 10:05:09;;;;;;;38.50;20.80;;;7.70;94.40;;;;;;5067126;28;20182;-85
2021/12/15 10:18:57;;;;;;;29.63;17.92;;;8.40;89.80;;;;;;5077394;28;20216;-80
2021/12/15 10:21:27;;;;;;;27.08;20.85;;;8.80;87.30;;;;;;5075652;28;20190;-80
2021/12/15 10:23:55;;;;;;;26.13;15.57;;;8.90;79.50;;;;;;5075027;28;20206;-81
2021/12/15 10:26:23;;;;;;;20.20;13.43;;;8.90;78.20;;;;;;5075885;28;20229;-80
2021/12/15 10:28:52;;;;;;;19.05;12.35;;;9.10;76.50;;;;;;5074330;28;20288;-81
2021/12/15 10:31:22;;;;;;;17.25;11.63;;;9.20;72.50;;;;;;5070763;28;20276;-81
2021/12/15 10:33:53;;;;;;;16.02;9.95;;;9.20;71.80;;;;;;5075688;28;20204;-80
2021/12/15 10:36:24;;;;;;;14.15;9.55;;;8.90;68.80;;;;;;5072994;28;20226;-80
2021/12/15 10:38:55;;;;;;;14.43;9.82;;;8.80;71.00;;;;;;5069176;28;20293;-82
2021/12/15 10:41:26;;;;;;;15.25;10.10;;;8.90;69.90;;;;;;5068648;28;20241;-81
2021/12/15 10:43:56;;;;;;;11.60;8.27;;;9.10;69.10;;;;;;5069730;28;20179;-81
2021/12/15 10:46:27;;;;;;;13.02;8.52;;;8.90;68.20;;;;;;5068746;28;20230;-80
2021/12/15 10:48:58;;;;;;;16.73;11.00;;;9.00;67.70;;;;;;5076586;28;20210;-80
2021/12/15 10:51:35;;;;;;;21.25;17.13;;;8.80;69.70;;;;;;5068164;28;20262;-81
2021/12/15 10:54:06;;;;;;;21.33;13.20;;;8.80;70.40;;;;;;5066768;28;20207;-81
2021/12/15 10:56:36;;;;;;;26.58;18.33;;;8.90;71.10;;;;;;5066745;28;20724;-81
2021/12/15 10:59:07;;;;;;;23.35;16.02;;;9.00;72.10;;;;;;5066635;28;20599;-82
2021/12/15 11:01:47;;;;;;;28.23;19.75;;;8.80;75.00;;;;;;5069196;28;20190;-80
2021/12/15 11:04:27;;;;;;;33.13;25.48;;;8.70;77.20;;;;;;5072160;28;20201;-80
2021/12/15 11:07:26;;;;;;;33.83;24.02;;;8.60;78.30;;;;;;5072726;28;20653;-83
2021/12/15 11:09:58;;;;;;;25.95;15.00;;;8.60;77.80;;;;;;5054591;28;20317;-80
2021/12/15 11:12:28;;;;;;;28.27;18.63;;;8.50;79.30;;;;;;5070070;28;20226;-81
2021/12/15 11:15:04;;;;;;;17.45;11.75;;;8.60;74.20;;;;;;5069437;28;20210;-80
2021/12/15 11:17:33;;;;;;;8.95;6.25;;;8.70;71.80;;;;;;5063997;28;20256;-82
2021/12/15 11:20:07;;;;;;;7.60;4.57;;;8.60;68.20;;;;;;5062677;28;20228;-80
2021/12/15 11:22:50;;;;;;;5.88;4.70;;;8.70;67.20;;;;;;5075624;28;20213;-79
2021/12/15 11:25:28;;;;;;;5.15;4.05;;;8.70;65.20;;;;;;5078102;28;20210;-81
2021/12/15 11:27:59;;;;;;;4.95;3.08;;;8.70;63.80;;;;;;5077588;28;20218;-81
2021/12/15 11:30:30;;;;;;;7.38;4.53;;;8.60;64.10;;;;;;5075745;28;20202;-81
2021/12/15 11:32:59;;;;;;;6.60;3.70;;;8.50;64.40;;;;;;5074462;28;20337;-82
2021/12/15 11:35:30;;;;;;;7.53;4.65;;;8.70;64.10;;;;;;5076324;28;20201;-79
2021/12/15 11:38:02;;;;;;;5.82;4.47;;;8.70;63.00;;;;;;5077233;28;20238;-81
2021/12/15 11:40:34;;;;;;;7.15;4.90;;;8.60;63.90;;;;;;5078129;28;20179;-80
2021/12/15 11:43:01;;;;;;;7.70;5.32;;;8.60;64.20;;;;;;5078168;28;20201;-82
2021/12/15 11:45:29;;;;;;;10.32;4.78;;;8.70;64.10;;;;;;5070016;28;20206;-81
2021/12/15 11:48:14;;;;;;;7.07;5.25;;;8.70;64.00;;;;;;5070269;28;20282;-81
2021/12/15 11:50:44;;;;;;;8.07;6.10;;;8.80;63.90;;;;;;5069588;28;20202;-80
2021/12/15 11:53:23;;;;;;;9.13;7.10;;;9.00;63.30;;;;;;5070901;28;20223;-81
2021/12/15 11:55:50;;;;;;;10.48;7.43;;;8.80;63.10;;;;;;5073245;28;20269;-81
2021/12/15 11:58:30;;;;;;;9.05;6.97;;;8.80;64.50;;;;;;5072743;28;20268;-81
2021/12/15 12:00:57;;;;;;;9.00;7.72;;;8.70;64.30;;;;;;5072439;28;20210;-82
2021/12/15 12:03:24;;;;;;;9.88;7.57;;;8.70;65.00;;;;;;5073866;28;20226;-79
2021/12/15 12:05:53;;;;;;;10.68;7.97;;;8.90;64.70;;;;;;5076174;28;20245;-81
2021/12/15 12:08:23;;;;;;;8.18;6.93;;;8.70;64.70;;;;;;5077349;28;20233;-79
2021/12/15 12:10:53;;;;;;;8.40;6.43;;;8.50;65.60;;;;;;5077871;28;20179;-80
2021/12/15 12:13:25;;;;;;;13.80;9.68;;;8.60;65.80;;;;;;5078287;28;20226;-80
2021/12/15 12:15:55;;;;;;;9.13;7.13;;;8.60;65.20;;;;;;5078371;28;20217;-85
2021/12/15 12:18:25;;;;;;;11.25;9.18;;;8.60;65.90;;;;;;5077761;28;20203;-79
2021/12/15 12:20:57;;;;;;;7.88;6.55;;;8.60;65.60;;;;;;5077564;28;20207;-79
2021/12/15 12:23:27;;;;;;;8.75;6.70;;;8.70;64.60;;;;;;5078072;28;20187;-80
2021/12/15 12:25:56;;;;;;;6.25;5.05;;;8.80;64.50;;;;;;5073562;28;20179;-80
2021/12/15 12:28:28;;;;;;;10.25;7.35;;;9.00;63.90;;;;;;5075568;28;20191;-80
2021/12/15 12:30:57;;;;;;;7.03;5.78;;;9.00;63.10;;;;;;5076273;28;20198;-80
2021/12/15 12:33:27;;;;;;;5.43;4.88;;;8.90;63.20;;;;;;5074543;28;20215;-81
2021/12/15 12:36:01;;;;;;;8.68;6.30;;;8.90;63.20;;;;;;5075846;28;20202;-80
2021/12/15 12:38:32;;;;;;;6.80;5.38;;;8.80;63.10;;;;;;5074667;28;20249;-80
2021/12/15 12:41:04;;;;;;;7.00;6.00;;;8.60;63.40;;;;;;5076401;28;20229;-81
2021/12/15 12:43:33;;;;;;;8.20;6.18;;;8.60;63.70;;;;;;5072061;28;20246;-79
2021/12/15 12:46:08;;;;;;;7.65;6.78;;;8.70;63.00;;;;;;5068345;28;20237;-79
2021/12/15 12:48:49;;;;;;;6.47;5.32;;;8.70;63.00;;;;;;5072293;28;20202;-80
2021/12/15 12:59:40;;;;;;;5.00;4.50;;;8.30;63.50;;;;;;5073830;28;20182;-81
2021/12/15 13:02:43;;;;;;;4.50;4.00;;;8.30;63.70;;;;;;5074754;28;20297;-80
2021/12/15 13:05:30;;;;;;;5.90;5.32;;;8.30;63.70;;;;;;5072631;28;20515;-81
2021/12/15 13:11:06;;;;;;;5.22;3.80;;;8.20;64.30;;;;;;5163650;22;20248;-79
2021/12/15 13:20:05;;;;;;;14.55;9.88;;;8.20;64.90;;;;;;5027603;28;20232;-77
2021/12/15 13:23:04;;;;;;;11.77;6.90;;;8.20;65.20;;;;;;5014267;28;20236;-78
2021/12/15 13:31:39;;;;;;;10.68;7.43;;;8.20;66.10;;;;;;5013329;28;20268;-77
2021/12/15 13:34:36;;;;;;;6.15;5.45;;;8.20;65.50;;;;;;4986340;28;20223;-77
2021/12/15 13:41:05;;;;;;;11.55;6.25;;;8.30;65.00;;;;;;4948303;29;20214;-78
2021/12/15 13:43:41;;;;;;;12.82;10.80;;;8.30;64.60;;;;;;4941923;29;20648;-78
2021/12/15 13:46:22;;;;;;;9.00;6.75;;;8.20;64.80;;;;;;4941440;29;20274;-77
2021/12/15 13:49:06;;;;;;;7.38;6.10;;;8.20;64.70;;;;;;4938749;29;20210;-77
2021/12/15 13:52:05;;;;;;;11.30;9.13;;;8.20;65.10;;;;;;4953556;29;20360;-77
2021/12/15 13:55:19;;;;;;;5.85;5.25;;;8.30;64.50;;;;;;4951212;29;20238;-78
2021/12/15 13:58:08;;;;;;;8.98;7.43;;;8.20;64.80;;;;;;4938194;29;20266;-77
2021/12/15 14:03:48;;;;;;;6.30;5.18;;;8.10;65.00;;;;;;4946030;29;20199;-78
2021/12/15 14:06:23;;;;;;;7.47;5.50;;;8.20;64.70;;;;;;4975646;28;20258;-77
2021/12/15 14:08:56;;;;;;;5.63;5.10;;;8.20;64.90;;;;;;4988436;28;20266;-79
2021/12/15 14:11:26;;;;;;;6.00;5.30;;;8.30;64.80;;;;;;5000145;28;20291;-78
2021/12/15 14:14:03;;;;;;;10.00;6.85;;;8.30;64.00;;;;;;5000521;28;20236;-78
2021/12/15 14:16:44;;;;;;;9.15;6.10;;;8.20;65.00;;;;;;5013336;28;20237;-78
2021/12/15 14:19:17;;;;;;;4.75;4.25;;;8.20;64.80;;;;;;5060748;28;20191;-80
2021/12/15 14:21:50;;;;;;;5.50;5.00;;;8.10;64.30;;;;;;5058531;28;20183;-78
2021/12/15 14:24:19;;;;;;;6.65;5.10;;;8.10;64.70;;;;;;5060742;28;20225;-77
2021/12/15 14:26:53;;;;;;;7.38;6.47;;;8.00;65.00;;;;;;5044353;28;20235;-77
2021/12/15 14:39:37;;;;;;;6.25;5.32;;;8.10;65.40;;;;;;4971569;28;20217;-77
2021/12/15 14:42:31;;;;;;;8.55;6.00;;;8.10;64.80;;;;;;4976387;29;20205;-77
2021/12/15 14:45:06;;;;;;;11.40;7.82;;;8.00;65.60;;;;;;4974467;29;20218;-78
2021/12/15 15:13:52;;;;;;;7.68;6.68;;;8.10;66.20;;;;;;4859292;29;20237;-77
2021/12/15 15:19:05;;;;;;;7.15;5.57;;;8.10;65.90;;;;;;5071088;22;20269;-79
2021/12/15 15:30:34;;;;;;;8.93;7.57;;;8.00;66.80;;;;;;4994654;22;20300;-81
2021/12/15 15:33:08;;;;;;;8.05;6.40;;;7.90;66.20;;;;;;5038254;28;20290;-80
2021/12/15 15:35:41;;;;;;;6.57;5.97;;;7.90;66.80;;;;;;5039470;28;20722;-79
2021/12/15 15:38:12;;;;;;;9.18;6.60;;;8.00;66.80;;;;;;5047642;28;20203;-81
2021/12/15 15:40:42;;;;;;;9.43;7.05;;;8.00;66.40;;;;;;5053739;28;20231;-84
2021/12/15 15:43:12;;;;;;;7.93;7.13;;;7.90;66.40;;;;;;5054273;28;20203;-81
2021/12/15 15:45:43;;;;;;;9.57;7.57;;;7.90;66.50;;;;;;5054113;28;20204;-81